Hovedside
METAR-TAF:

METAR-TAF

Lufthavner :

Arequipa, Peru

breddegrad: 16-19S, lengdegrad: 071-33W, høyde over havet: 2538 m

Gjeldene værobservasjon

Denne rapporten ble laget for 32 minutter siden, klokken 14:00 UTC
Vind 5 kt fra Sør-sørvest, skiftende mellom Sør-sørøst og Vest-nordvest
Temperatur 19°C
Luftfuktighet 24%
Trykk 1026 hPa
Sikt 10 km eller mer
ingen skyer under 1500 m og ingen bygeskyer

METAR: SPQU 301400Z 20005KT 150V290 CAVOK 19/M02 Q1026 NOSIG RMK PP000

Tid: 09:32 (14:32 UTC)

Varsel

Denne rapporten ble laget for 3 timer og 22 minutter siden, klokken 11:10 UTC
Varsel gyldig fra 30. klokken 12 UTC til 01. klokken 12 UTC
Vind 5 kt fra Nord-nordøst
Sikt 10 km eller mer
ingen skyer under 1500 m og ingen bygeskyer
Blir
fra 30. klokken 13 UTC til 30. klokken 16 UTC
Vind 11 kt fra Vest-sørvest
Blir
fra 01. klokken 01 UTC til 01. klokken 03 UTC
Vind 5 kt fra Nordøst

TAF: SPQU 301110Z 3012/0112 03005KT CAVOK TX21/3019Z TN10/0110Z BECMG 3013/3016 25011KT BECMG 0101/0103 05005KT

Værobservasjoner og værvarsel for over 4000 flyplasser (METAR- og TAF-rapporter).

Tilgjengelige stasjoner er representert av de røde og gule prikkene på kartet.

Hold musepekeren over prikken for å se navnet på stasjonen.

Klikk så for å se værobservasjoner og -varsler.

For å forandre kartet kan du klikke på den grønne knappen med svart kryss for å zoome inn, på den grønne knappen med strek for å zoome ut, eller på de grønne pilene for å se tilstøtende kart.


METAR-TAF: